createdAt,value
2023-03-05T00:00:27.613Z,139
2023-03-05T00:02:55.898Z,120
2023-03-05T00:05:24.127Z,150
2023-03-05T00:07:52.402Z,173
2023-03-05T00:10:20.631Z,140
2023-03-05T00:12:48.936Z,142
2023-03-05T00:15:17.172Z,177
2023-03-05T00:17:45.442Z,144
2023-03-05T00:20:13.754Z,155
2023-03-05T00:22:42.006Z,126
2023-03-05T00:26:24.394Z,153
2023-03-05T00:28:52.673Z,122
2023-03-05T00:31:20.973Z,145
2023-03-05T00:33:49.187Z,147
2023-03-05T00:36:17.462Z,121
2023-03-05T00:38:45.716Z,129
2023-03-05T00:41:14.037Z,147
2023-03-05T00:43:42.239Z,127
2023-03-05T00:47:24.660Z,122
2023-03-05T00:49:52.931Z,144
2023-03-05T00:52:21.167Z,138
2023-03-05T00:54:49.445Z,107
2023-03-05T00:58:23.646Z,147
2023-03-05T01:00:51.950Z,129
2023-03-05T01:03:20.201Z,194
2023-03-05T01:05:48.428Z,174
2023-03-05T01:08:16.702Z,100
2023-03-05T01:10:45.033Z,162
2023-03-05T01:15:41.913Z,129
2023-03-05T01:19:23.916Z,170
2023-03-05T01:21:52.174Z,125
2023-03-05T01:24:20.418Z,123
2023-03-05T01:26:48.688Z,129
2023-03-05T01:29:16.948Z,97
2023-03-05T01:31:45.349Z,117
2023-03-05T01:34:13.486Z,124
2023-03-05T01:36:41.770Z,122
2023-03-05T01:40:24.164Z,138
2023-03-05T01:42:52.425Z,117
2023-03-05T01:45:20.764Z,141
2023-03-05T01:47:49.035Z,129
2023-03-05T01:50:25.457Z,139
2023-03-05T01:52:53.718Z,131
2023-03-05T01:55:21.940Z,111
2023-03-05T02:00:10.315Z,158
2023-03-05T02:02:38.578Z,125
2023-03-05T02:06:20.968Z,131
2023-03-05T02:08:49.245Z,127
2023-03-05T02:11:17.533Z,148
2023-03-05T02:13:45.782Z,127
2023-03-05T02:16:14.062Z,109
2023-03-05T02:18:42.300Z,108
2023-03-05T02:22:24.720Z,165
2023-03-05T02:24:52.988Z,171
2023-03-05T02:27:21.247Z,150
2023-03-05T02:29:49.525Z,135
2023-03-05T02:32:17.909Z,139
2023-03-05T02:34:46.060Z,137
2023-03-05T02:37:14.340Z,127
2023-03-05T02:39:42.607Z,153
2023-03-05T02:43:25.002Z,123
2023-03-05T02:45:53.245Z,125
2023-03-05T02:48:21.485Z,138
2023-03-05T02:50:49.729Z,153
2023-03-05T02:53:18.024Z,144
2023-03-05T02:55:46.314Z,129
2023-03-05T02:59:20.509Z,147
2023-03-05T03:01:48.758Z,151
2023-03-05T03:04:17.063Z,121
2023-03-05T03:06:45.339Z,122
2023-03-05T03:09:13.523Z,154
2023-03-05T03:11:41.813Z,136
2023-03-05T03:15:24.187Z,141
2023-03-05T03:17:52.498Z,119
2023-03-05T03:20:20.738Z,112
2023-03-05T03:22:49.011Z,138
2023-03-05T03:25:17.263Z,121
2023-03-05T03:27:45.549Z,144
2023-03-05T03:30:13.824Z,135
2023-03-05T03:32:42.107Z,164
2023-03-05T03:36:24.507Z,134
2023-03-05T03:38:52.760Z,144
2023-03-05T03:41:21.000Z,146
2023-03-05T03:43:49.284Z,154
2023-03-05T03:46:17.615Z,214
2023-03-05T03:48:45.840Z,164
2023-03-05T03:51:14.129Z,112
2023-03-05T03:53:42.418Z,148
2023-03-05T03:57:24.779Z,125
2023-03-05T03:59:53.037Z,178
2023-03-05T04:02:21.381Z,127
2023-03-05T04:04:49.565Z,133
2023-03-05T04:09:37.902Z,134
2023-03-05T04:13:20.285Z,134
2023-03-05T04:15:48.625Z,137
2023-03-05T04:18:16.941Z,155
2023-03-05T04:20:45.101Z,147
2023-03-05T04:23:13.413Z,140
2023-03-05T04:25:41.636Z,167
2023-03-05T04:29:23.999Z,138
2023-03-05T04:31:52.277Z,137
2023-03-05T04:34:20.537Z,126
2023-03-05T04:36:48.835Z,133
2023-03-05T04:39:17.056Z,120
2023-03-05T04:41:45.404Z,146
2023-03-05T04:44:13.592Z,141
2023-03-05T04:46:41.936Z,132
2023-03-05T04:50:24.272Z,132
2023-03-05T04:52:52.596Z,178
2023-03-05T04:55:20.860Z,135
2023-03-05T04:57:49.099Z,148
2023-03-05T05:00:17.385Z,181
2023-03-05T05:02:45.726Z,143
2023-03-05T05:05:13.862Z,138
2023-03-05T05:07:42.191Z,130
2023-03-05T05:11:16.378Z,141
2023-03-05T05:13:44.649Z,174
2023-03-05T05:16:12.899Z,152
2023-03-05T05:18:41.143Z,161
2023-03-05T05:22:23.567Z,158
2023-03-05T05:24:51.854Z,116
2023-03-05T05:27:20.134Z,168
2023-03-05T05:29:48.347Z,194
2023-03-05T05:32:16.671Z,154
2023-03-05T05:34:44.892Z,152
2023-03-05T05:37:13.159Z,150
2023-03-05T05:39:41.444Z,149
2023-03-05T05:43:23.836Z,154
2023-03-05T05:45:52.184Z,156
2023-03-05T05:48:20.361Z,149
2023-03-05T05:50:48.641Z,193
2023-03-05T05:53:16.921Z,134
2023-03-05T05:55:45.250Z,164
2023-03-05T05:58:21.614Z,202
2023-03-05T06:00:49.902Z,175
2023-03-05T06:03:18.151Z,138
2023-03-05T06:05:46.397Z,123
2023-03-05T06:09:20.615Z,165
2023-03-05T06:11:48.937Z,142
2023-03-05T06:14:17.156Z,172
2023-03-05T06:16:45.566Z,123
2023-03-05T06:19:13.672Z,158
2023-03-05T06:21:41.993Z,144
2023-03-05T06:25:24.353Z,118
2023-03-05T06:27:52.644Z,148
2023-03-05T06:30:20.951Z,160
2023-03-05T06:32:49.177Z,141
2023-03-05T06:35:17.467Z,179
2023-03-05T06:37:45.711Z,138
2023-03-05T06:40:13.986Z,118
2023-03-05T06:42:42.232Z,143
2023-03-05T06:46:24.680Z,119
2023-03-05T06:48:52.896Z,160
2023-03-05T06:51:21.175Z,121
2023-03-05T06:53:49.707Z,157
2023-03-05T06:56:17.677Z,125
2023-03-05T06:58:45.973Z,142
2023-03-05T07:01:14.243Z,136
2023-03-05T07:03:42.485Z,133
2023-03-05T07:07:24.906Z,114
2023-03-05T07:12:13.223Z,121
2023-03-05T07:14:41.494Z,119
2023-03-05T07:18:23.890Z,125
2023-03-05T07:20:52.195Z,121
2023-03-05T07:23:20.399Z,94
2023-03-05T07:25:48.680Z,130
2023-03-05T07:28:16.931Z,119
2023-03-05T07:30:45.268Z,131
2023-03-05T07:33:13.476Z,126
2023-03-05T07:35:41.785Z,113
2023-03-05T07:39:24.156Z,99
2023-03-05T07:41:52.460Z,115
2023-03-05T07:44:20.659Z,107
2023-03-05T07:46:48.972Z,114
2023-03-05T07:49:17.202Z,99
2023-03-05T07:51:45.542Z,139
2023-03-05T07:54:13.743Z,115
2023-03-05T07:56:42.042Z,134
2023-03-05T08:00:24.488Z,115
2023-03-05T08:02:52.773Z,111
2023-03-05T08:05:20.940Z,135
2023-03-05T08:07:49.324Z,113
2023-03-05T08:10:17.517Z,99
2023-03-05T08:12:45.787Z,119
2023-03-05T08:15:14.004Z,99
2023-03-05T08:17:42.271Z,93
2023-03-05T08:21:16.510Z,113
2023-03-05T08:23:44.796Z,122
2023-03-05T08:26:13.019Z,161
2023-03-05T08:28:41.316Z,99
2023-03-05T08:32:23.740Z,114
2023-03-05T08:34:51.951Z,84
2023-03-05T08:37:20.206Z,86
2023-03-05T08:39:48.500Z,96
2023-03-05T08:42:16.734Z,76
2023-03-05T08:44:45.029Z,88
2023-03-05T08:47:13.298Z,114
2023-03-05T08:49:41.567Z,100
2023-03-05T08:53:23.945Z,98
2023-03-05T08:55:52.228Z,104
2023-03-05T08:58:20.446Z,95
2023-03-05T09:00:48.753Z,81
2023-03-05T09:03:17.060Z,113
2023-03-05T09:05:45.293Z,92
2023-03-05T09:08:13.557Z,88
2023-03-05T09:10:41.794Z,92
2023-03-05T09:14:24.200Z,77
2023-03-05T09:16:52.456Z,73
2023-03-05T09:19:20.762Z,110
2023-03-05T09:24:09.125Z,123
2023-03-05T09:26:37.358Z,75
2023-03-05T09:35:16.315Z,104
2023-03-05T09:37:44.662Z,119
2023-03-05T09:40:12.810Z,74
2023-03-05T09:42:41.080Z,98
2023-03-05T09:46:23.489Z,97
2023-03-05T09:48:51.786Z,115
2023-03-05T09:51:20.027Z,110
2023-03-05T09:53:48.289Z,86
2023-03-05T09:56:16.548Z,87
2023-03-05T09:58:44.847Z,79
2023-03-05T10:01:13.070Z,86
2023-03-05T10:03:41.512Z,70
2023-03-05T10:07:31.950Z,72
2023-03-05T10:11:14.325Z,74
2023-03-05T10:13:42.642Z,66
2023-03-05T10:17:24.996Z,57
2023-03-05T10:19:53.293Z,69
2023-03-05T10:22:13.377Z,65
2023-03-05T10:24:41.614Z,63
2023-03-05T10:28:24.048Z,79
2023-03-05T10:30:52.306Z,43
2023-03-05T10:33:20.566Z,52
2023-03-05T10:35:48.895Z,63
2023-03-05T10:38:17.096Z,63
2023-03-05T10:40:45.379Z,52
2023-03-05T10:43:13.606Z,45
2023-03-05T10:45:41.953Z,45
2023-03-05T10:49:24.286Z,54
2023-03-05T10:51:52.579Z,40
2023-03-05T10:54:20.813Z,53
2023-03-05T10:56:49.104Z,36
2023-03-05T10:59:17.330Z,44
2023-03-05T11:01:45.708Z,45
2023-03-05T11:04:13.867Z,36
2023-03-05T11:06:42.145Z,40
2023-03-05T11:10:24.509Z,35
2023-03-05T11:12:52.847Z,42
2023-03-05T11:15:21.068Z,41
2023-03-05T11:17:49.400Z,25
2023-03-05T11:20:17.618Z,28
2023-03-05T11:22:37.689Z,50
2023-03-05T11:26:20.055Z,36
2023-03-05T11:28:48.341Z,39
2023-03-05T11:31:16.671Z,47
2023-03-05T11:33:44.875Z,53
2023-03-05T11:36:13.141Z,47
2023-03-05T11:38:41.392Z,36
2023-03-05T11:42:23.852Z,42
2023-03-05T11:44:52.090Z,52
2023-03-05T11:47:20.339Z,31
2023-03-05T11:49:48.601Z,32
2023-03-05T11:52:16.923Z,51
2023-03-05T11:54:45.180Z,45
2023-03-05T11:57:13.510Z,38
2023-03-05T11:59:41.669Z,23
2023-03-05T12:03:24.117Z,26
2023-03-05T12:05:52.382Z,30
2023-03-05T12:08:20.612Z,31
2023-03-05T12:10:48.905Z,49
2023-03-05T12:13:17.157Z,51
2023-03-05T12:15:45.435Z,36
2023-03-05T12:18:13.689Z,41
2023-03-05T12:20:42.102Z,45
2023-03-05T12:24:16.210Z,42
2023-03-05T12:26:44.417Z,24
2023-03-05T12:29:12.728Z,24
2023-03-05T12:31:41.548Z,26
2023-03-05T12:35:23.497Z,29
2023-03-05T12:37:51.626Z,35
2023-03-05T12:40:19.873Z,39
2023-03-05T12:42:48.151Z,24
2023-03-05T12:45:16.450Z,44
2023-03-05T12:47:44.694Z,26
2023-03-05T12:50:13.022Z,28
2023-03-05T12:52:41.202Z,27
2023-03-05T12:56:23.663Z,27
2023-03-05T12:58:51.895Z,27
2023-03-05T13:01:20.166Z,51
2023-03-05T13:03:48.447Z,33
2023-03-05T13:06:16.692Z,31
2023-03-05T13:08:44.946Z,27
2023-03-05T13:11:13.209Z,73
2023-03-05T13:13:41.470Z,25
2023-03-05T13:17:25.012Z,26
2023-03-05T13:19:52.152Z,32
2023-03-05T13:23:26.395Z,30
2023-03-05T13:25:54.644Z,33
2023-03-05T13:28:22.893Z,30
2023-03-05T13:30:51.164Z,28
2023-03-05T13:33:19.433Z,30
2023-03-05T13:35:47.734Z,25
2023-03-05T13:38:15.935Z,31
2023-03-05T13:40:44.213Z,31
2023-03-05T13:43:12.496Z,29
2023-03-05T13:45:40.901Z,34
2023-03-05T13:49:23.201Z,37
2023-03-05T13:51:51.415Z,39
2023-03-05T13:54:19.687Z,27
2023-03-05T13:56:47.962Z,32
2023-03-05T13:59:16.248Z,47
2023-03-05T14:01:44.473Z,31
2023-03-05T14:04:12.716Z,31
2023-03-05T14:06:41.009Z,34
2023-03-05T14:10:23.427Z,25
2023-03-05T14:12:59.886Z,45
2023-03-05T14:15:28.176Z,38
2023-03-05T14:17:56.407Z,51
2023-03-05T14:20:24.639Z,42
2023-03-05T14:22:52.939Z,45
2023-03-05T14:26:29.105Z,37
2023-03-05T14:28:55.435Z,28
2023-03-05T14:31:23.649Z,42
2023-03-05T14:33:51.918Z,46
2023-03-05T14:36:20.210Z,49
2023-03-05T14:38:48.480Z,33
2023-03-05T14:42:30.868Z,51
2023-03-05T14:46:13.683Z,43
2023-03-05T14:48:41.537Z,43
2023-03-05T14:52:23.970Z,47
2023-03-05T14:54:52.197Z,40
2023-03-05T14:57:20.463Z,42
2023-03-05T14:59:48.744Z,33
2023-03-05T15:02:17.137Z,64
2023-03-05T15:04:45.315Z,47
2023-03-05T15:07:13.560Z,44
2023-03-05T15:09:41.851Z,43
2023-03-05T15:13:24.248Z,46
2023-03-05T15:15:52.493Z,44
2023-03-05T15:18:20.744Z,42
2023-03-05T15:20:49.000Z,43
2023-03-05T15:24:23.238Z,33
2023-03-05T15:26:51.537Z,43
2023-03-05T15:29:19.764Z,58
2023-03-05T15:31:48.019Z,41
2023-03-05T15:34:16.309Z,45
2023-03-05T15:36:44.561Z,41
2023-03-05T15:39:12.898Z,62
2023-03-05T15:41:41.079Z,50
2023-03-05T15:45:23.538Z,43
2023-03-05T15:47:51.828Z,41
2023-03-05T15:50:19.997Z,53
2023-03-05T15:52:48.316Z,49
2023-03-05T15:55:16.549Z,35
2023-03-05T15:57:44.859Z,36
2023-03-05T16:00:14.210Z,40
2023-03-05T16:02:41.356Z,39
2023-03-05T16:06:23.759Z,42
2023-03-05T16:08:52.044Z,67
2023-03-05T16:11:20.308Z,47
2023-03-05T16:13:48.582Z,42
2023-03-05T16:16:16.911Z,38
2023-03-05T16:21:13.420Z,61
2023-03-05T16:24:47.588Z,34
2023-03-05T16:27:15.830Z,42
2023-03-05T16:29:44.069Z,56
2023-03-05T16:32:12.353Z,145
2023-03-05T16:34:40.634Z,58
2023-03-05T16:38:23.024Z,57
2023-03-05T16:41:07.152Z,35
2023-03-05T16:43:19.538Z,64
2023-03-05T16:45:47.854Z,44
2023-03-05T16:48:16.097Z,41
2023-03-05T16:50:44.337Z,85
2023-03-05T16:53:12.662Z,59
2023-03-05T16:55:40.903Z,44
2023-03-05T16:59:23.324Z,53
2023-03-05T17:01:51.567Z,57
2023-03-05T17:04:19.859Z,57
2023-03-05T17:06:48.098Z,51
2023-03-05T17:09:16.347Z,44
2023-03-05T17:11:44.612Z,38
2023-03-05T17:14:12.873Z,58
2023-03-05T17:16:41.163Z,59
2023-03-05T17:20:23.553Z,54
2023-03-05T17:22:51.874Z,50
2023-03-05T17:25:11.890Z,45
2023-03-05T17:27:40.164Z,41
2023-03-05T17:31:22.709Z,45
2023-03-05T17:33:50.868Z,48
2023-03-05T17:36:19.113Z,61
2023-03-05T17:38:47.350Z,58
2023-03-05T17:41:15.658Z,53
2023-03-05T17:43:43.888Z,67
2023-03-05T17:46:13.177Z,96
2023-03-05T17:48:40.423Z,84
2023-03-05T17:52:22.856Z,78
2023-03-05T17:54:51.079Z,75
2023-03-05T17:57:19.387Z,51
2023-03-05T17:59:47.644Z,56
2023-03-05T18:02:15.941Z,55
2023-03-05T18:04:44.137Z,54
2023-03-05T18:07:12.461Z,53
2023-03-05T18:09:40.687Z,53
2023-03-05T18:13:23.086Z,49
2023-03-05T18:15:51.363Z,51
2023-03-05T18:18:19.655Z,53
2023-03-05T18:20:56.075Z,39
2023-03-05T18:23:24.362Z,47
2023-03-05T18:25:44.409Z,28
2023-03-05T18:28:12.703Z,49
2023-03-05T18:34:23.356Z,53
2023-03-05T18:36:51.614Z,33
2023-03-05T18:39:19.880Z,39
2023-03-05T18:41:48.308Z,51
2023-03-05T18:44:16.398Z,47
2023-03-05T18:46:44.686Z,30
2023-03-05T18:49:12.963Z,36
2023-03-05T18:51:41.257Z,43
2023-03-05T18:55:23.607Z,42
2023-03-05T18:57:51.914Z,42
2023-03-05T19:00:20.189Z,40
2023-03-05T19:02:48.411Z,36
2023-03-05T19:05:16.709Z,48
2023-03-05T19:07:45.061Z,64
2023-03-05T19:10:13.228Z,68
2023-03-05T19:12:41.504Z,60
2023-03-05T19:16:23.872Z,51
2023-03-05T19:18:52.143Z,75
2023-03-05T19:21:20.411Z,53
2023-03-05T19:23:48.675Z,65
2023-03-05T19:26:08.775Z,60
2023-03-05T19:28:37.022Z,48
2023-03-05T19:32:19.459Z,76
2023-03-05T19:34:47.687Z,47
2023-03-05T19:37:15.966Z,52
2023-03-05T19:39:44.222Z,49
2023-03-05T19:42:12.515Z,65
2023-03-05T19:44:40.808Z,49
2023-03-05T19:48:23.139Z,65
2023-03-05T19:50:51.414Z,51
2023-03-05T19:53:19.677Z,61
2023-03-05T19:55:47.977Z,61
2023-03-05T19:58:16.260Z,58
2023-03-05T20:00:44.480Z,59
2023-03-05T20:03:12.741Z,68
2023-03-05T20:05:41.044Z,75
2023-03-05T20:09:23.431Z,69
2023-03-05T20:11:51.693Z,60
2023-03-05T20:14:19.936Z,60
2023-03-05T20:16:48.239Z,79
2023-03-05T20:19:16.503Z,64
2023-03-05T20:21:44.775Z,63
2023-03-05T20:24:13.003Z,92
2023-03-05T20:30:15.533Z,85
2023-03-05T20:32:43.741Z,85
2023-03-05T20:35:12.076Z,71
2023-03-05T20:37:40.276Z,78
2023-03-05T20:41:22.685Z,58
2023-03-05T20:43:50.918Z,68
2023-03-05T20:46:19.277Z,86
2023-03-05T20:48:47.487Z,76
2023-03-05T20:51:15.755Z,86
2023-03-05T20:53:44.039Z,97
2023-03-05T20:56:12.284Z,74
2023-03-05T20:58:40.537Z,87
2023-03-05T21:02:23.069Z,91
2023-03-05T21:04:51.181Z,77
2023-03-05T21:07:19.489Z,59
2023-03-05T21:09:47.748Z,68
2023-03-05T21:12:16.061Z,57
2023-03-05T21:14:44.277Z,82
2023-03-05T21:17:12.561Z,55
2023-03-05T21:19:40.839Z,64
2023-03-05T21:23:23.227Z,81
2023-03-05T21:25:51.517Z,69
2023-03-05T21:29:25.731Z,78
2023-03-05T21:31:54.003Z,66
2023-03-05T21:34:22.244Z,75
2023-03-05T21:36:50.466Z,72
2023-03-05T21:39:18.781Z,64
2023-03-05T21:41:47.024Z,63
2023-03-05T21:44:15.308Z,88
2023-03-05T21:46:43.536Z,59
2023-03-05T21:50:25.995Z,81
2023-03-05T21:52:54.224Z,86
2023-03-05T21:55:22.512Z,75
2023-03-05T21:57:50.716Z,101
2023-03-05T22:00:19.001Z,80
2023-03-05T22:02:47.261Z,77
2023-03-05T22:05:15.520Z,60
2023-03-05T22:07:43.822Z,61
2023-03-05T22:10:12.061Z,65
2023-03-05T22:12:40.340Z,75
2023-03-05T22:16:22.822Z,76
2023-03-05T22:18:51.014Z,68
2023-03-05T22:21:19.261Z,110
2023-03-05T22:23:47.582Z,58
2023-03-05T22:27:21.825Z,50
2023-03-05T22:31:12.340Z,63
2023-03-05T22:33:40.631Z,74
2023-03-05T22:37:22.990Z,83
2023-03-05T22:39:51.263Z,64
2023-03-05T22:42:19.535Z,68
2023-03-05T22:44:47.833Z,54
2023-03-05T22:47:16.055Z,68
2023-03-05T22:49:46.758Z,48
2023-03-05T22:52:12.617Z,46
2023-03-05T22:54:40.853Z,50
2023-03-05T22:59:37.370Z,60
2023-03-05T23:03:19.884Z,71
2023-03-05T23:05:48.054Z,54
2023-03-05T23:08:16.384Z,58
2023-03-05T23:10:44.602Z,53
2023-03-05T23:13:12.868Z,53
2023-03-05T23:15:41.148Z,59
2023-03-05T23:19:23.512Z,69
2023-03-05T23:21:51.793Z,66
2023-03-05T23:24:20.104Z,67
2023-03-05T23:26:48.369Z,49
2023-03-05T23:30:22.538Z,49
2023-03-05T23:32:50.802Z,43
2023-03-05T23:35:19.096Z,63
2023-03-05T23:37:47.373Z,52
2023-03-05T23:40:15.586Z,48
2023-03-05T23:42:43.875Z,44
2023-03-05T23:45:12.114Z,47
2023-03-05T23:47:40.430Z,69
2023-03-05T23:51:22.786Z,56
2023-03-05T23:53:51.025Z,47
2023-03-05T23:56:19.323Z,62
2023-03-05T23:58:47.630Z,79
